createdAt,value
2019-06-07T00:03:40.465Z,64.10
2019-06-07T00:08:44.772Z,64.10
2019-06-07T00:13:49.067Z,64.00
2019-06-07T00:18:53.369Z,63.90
2019-06-07T00:23:57.669Z,63.90
2019-06-07T00:29:01.982Z,63.70
2019-06-07T00:34:06.267Z,63.70
2019-06-07T00:39:13.470Z,63.50
2019-06-07T00:44:19.723Z,63.20
2019-06-07T00:49:39.971Z,63.20
2019-06-07T00:54:28.769Z,63.10
2019-06-07T00:59:33.068Z,63.50
2019-06-07T01:04:37.368Z,63.40
2019-06-07T01:09:41.671Z,63.30
2019-06-07T01:14:46.021Z,63.10
2019-06-07T01:19:50.264Z,63.20
2019-06-07T01:24:54.563Z,63.10
2019-06-07T01:29:58.864Z,63.20
2019-06-07T01:35:03.734Z,63.20
2019-06-07T01:40:08.746Z,63.00
2019-06-07T01:45:18.037Z,63.00
2019-06-07T01:50:24.865Z,63.00
2019-06-07T01:55:32.250Z,63.00
2019-06-07T02:00:33.731Z,63.10
2019-06-07T02:05:38.041Z,63.10
2019-06-07T02:10:42.344Z,63.20
2019-06-07T02:15:47.112Z,63.30
2019-06-07T02:20:51.405Z,63.20
2019-06-07T02:25:55.713Z,63.10
2019-06-07T02:31:00.764Z,62.90
2019-06-07T02:36:05.313Z,63.60
2019-06-07T02:41:35.348Z,63.00
2019-06-07T02:46:45.861Z,62.80
2019-06-07T02:51:42.596Z,62.70
2019-06-07T02:56:58.004Z,62.70
2019-06-07T03:01:55.379Z,62.90
2019-06-07T03:07:00.625Z,62.80
2019-06-07T03:12:05.804Z,62.60
2019-06-07T03:17:14.720Z,62.50
2019-06-07T03:22:19.020Z,62.50
2019-06-07T03:27:35.075Z,62.40
2019-06-07T03:32:34.521Z,62.40
2019-06-07T03:37:40.648Z,62.30
2019-06-07T03:42:41.967Z,62.30
2019-06-07T03:47:46.337Z,62.30
2019-06-07T03:52:50.759Z,62.20
2019-06-07T04:03:01.413Z,62.10
2019-06-07T04:08:05.785Z,62.00
2019-06-07T04:13:10.095Z,62.20
2019-06-07T04:18:14.393Z,62.30
2019-06-07T04:23:27.615Z,62.40
2019-06-07T04:29:16.496Z,62.30
2019-06-07T04:33:31.347Z,62.30
2019-06-07T04:38:40.638Z,62.20
2019-06-07T04:43:45.508Z,62.30
2019-06-07T04:48:51.826Z,62.50
2019-06-07T04:53:56.138Z,63.10
2019-06-07T04:59:00.436Z,62.30
2019-06-07T05:04:04.818Z,61.90
2019-06-07T05:09:09.122Z,61.70
2019-06-07T05:14:13.428Z,61.60
2019-06-07T05:19:17.731Z,61.70
2019-06-07T05:24:22.060Z,61.40
2019-06-07T05:29:26.364Z,61.10
2019-06-07T05:34:32.258Z,61.80
2019-06-07T05:39:38.488Z,62.20
2019-06-07T05:44:45.254Z,61.90
2019-06-07T05:49:48.835Z,60.90
2019-06-07T05:54:53.153Z,62.20
2019-06-07T05:59:57.460Z,62.70
2019-06-07T06:05:02.294Z,63.10
2019-06-07T06:10:10.193Z,62.90
2019-06-07T06:15:15.237Z,62.00
2019-06-07T06:20:19.726Z,61.70
2019-06-07T06:25:33.353Z,61.60
2019-06-07T06:30:30.860Z,61.50
2019-06-07T06:35:35.139Z,61.50
2019-06-07T06:40:44.311Z,62.20
2019-06-07T06:45:49.768Z,61.60
2019-06-07T06:50:52.700Z,61.60
2019-06-07T06:55:57.277Z,61.70
2019-06-07T07:01:06.329Z,61.70
2019-06-07T07:06:25.063Z,61.90
2019-06-07T07:11:14.511Z,61.80
2019-06-07T07:16:18.809Z,62.30
2019-06-07T07:21:23.115Z,62.30
2019-06-07T07:26:27.419Z,62.20
2019-06-07T07:31:31.730Z,62.20
2019-06-07T07:36:39.814Z,62.80
2019-06-07T07:42:04.753Z,62.80
2019-06-07T07:46:51.242Z,62.50
2019-06-07T07:51:57.075Z,62.40
2019-06-07T07:57:00.154Z,62.50
2019-06-07T08:02:04.527Z,63.10
2019-06-07T08:07:08.841Z,63.10
2019-06-07T08:12:13.154Z,64.00
2019-06-07T08:17:17.465Z,63.70
2019-06-07T08:22:21.780Z,64.40
2019-06-07T08:27:27.014Z,64.70
2019-06-07T08:32:31.442Z,64.20
2019-06-07T08:38:13.979Z,63.60
2019-06-07T08:42:59.913Z,63.00
2019-06-07T08:47:48.331Z,62.70
2019-06-07T08:52:56.049Z,63.20
2019-06-07T08:58:04.155Z,63.50
2019-06-07T09:03:07.479Z,63.50
2019-06-07T09:08:29.356Z,63.30
2019-06-07T09:13:17.736Z,63.90
2019-06-07T09:18:44.012Z,63.80
2019-06-07T09:23:28.405Z,63.80
2019-06-07T09:28:33.286Z,63.60
2019-06-07T09:33:37.563Z,63.70
2019-06-07T09:38:43.001Z,63.60
2019-06-07T09:44:01.960Z,63.40
2019-06-07T09:54:01.228Z,63.30
2019-06-07T09:59:07.486Z,63.30
2019-06-07T10:04:30.213Z,63.40
2019-06-07T10:14:24.283Z,63.20
2019-06-07T10:19:28.583Z,63.30
2019-06-07T10:24:32.883Z,63.30
2019-06-07T10:29:37.193Z,63.00
2019-06-07T10:34:41.501Z,62.90
2019-06-07T10:39:49.198Z,62.90
2019-06-07T10:44:51.843Z,62.80
2019-06-07T10:49:56.302Z,62.80
2019-06-07T10:55:00.703Z,62.80
2019-06-07T11:00:11.668Z,62.70
2019-06-07T11:05:17.698Z,62.60
2019-06-07T11:10:22.205Z,62.60
2019-06-07T11:15:26.498Z,62.50
2019-06-07T11:20:30.794Z,62.30
2019-06-07T11:25:35.142Z,62.30
2019-06-07T11:30:39.511Z,62.40
2019-06-07T11:35:43.814Z,62.30
2019-06-07T11:40:48.107Z,62.20
2019-06-07T11:45:52.415Z,62.20
2019-06-07T11:50:56.723Z,62.20
2019-06-07T11:56:01.030Z,62.20
2019-06-07T12:01:05.329Z,62.10
2019-06-07T12:06:10.030Z,62.20
2019-06-07T12:11:14.506Z,61.90
2019-06-07T12:16:19.440Z,62.00
2019-06-07T12:21:23.874Z,61.80
2019-06-07T12:26:28.187Z,61.90
2019-06-07T12:31:32.492Z,61.80
2019-06-07T12:36:36.809Z,61.80
2019-06-07T12:41:41.124Z,61.70
2019-06-07T12:46:45.491Z,61.60
2019-06-07T12:51:49.853Z,61.60
2019-06-07T12:56:54.163Z,61.40
2019-06-07T13:02:02.300Z,61.30
2019-06-07T13:07:04.570Z,61.40
2019-06-07T13:12:08.900Z,61.50
2019-06-07T13:17:13.195Z,61.40
2019-06-07T13:22:18.312Z,61.50
2019-06-07T13:27:22.705Z,61.50
2019-06-07T13:32:28.155Z,61.60
2019-06-07T13:37:32.596Z,61.70
2019-06-07T13:42:37.332Z,61.80
2019-06-07T13:47:41.629Z,61.90
2019-06-07T13:52:46.750Z,61.90
2019-06-07T13:57:51.518Z,61.90
2019-06-07T14:02:56.729Z,61.80
2019-06-07T14:08:01.033Z,61.80
2019-06-07T14:13:05.509Z,61.80
2019-06-07T14:18:09.803Z,61.80
2019-06-07T14:23:14.112Z,61.70
2019-06-07T14:28:18.648Z,61.80
2019-06-07T14:33:25.190Z,61.80
2019-06-07T14:38:32.730Z,61.90
2019-06-07T14:43:34.983Z,62.50
2019-06-07T14:48:39.351Z,63.10
2019-06-07T14:53:43.680Z,63.80
2019-06-07T14:58:47.996Z,64.30
2019-06-07T15:03:52.309Z,64.60
2019-06-07T15:08:56.600Z,65.00
2019-06-07T15:14:00.921Z,65.00
2019-06-07T15:19:05.299Z,65.00
2019-06-07T15:24:09.601Z,65.20
2019-06-07T15:29:13.909Z,65.30
2019-06-07T15:34:18.212Z,65.30
2019-06-07T15:39:22.508Z,65.40
2019-06-07T15:44:26.832Z,65.50
2019-06-07T15:49:31.958Z,65.80
2019-06-07T15:54:36.515Z,66.30
2019-06-07T15:59:41.561Z,66.40
2019-06-07T16:04:45.922Z,66.20
2019-06-07T16:09:50.244Z,65.70
2019-06-07T16:14:54.548Z,66.10
2019-06-07T16:19:58.847Z,66.40
2019-06-07T16:25:04.239Z,67.10
2019-06-07T16:30:10.316Z,66.40
2019-06-07T16:35:16.341Z,66.70
2019-06-07T16:40:21.166Z,66.70
2019-06-07T16:45:25.916Z,66.70
2019-06-07T16:50:30.225Z,66.80
2019-06-07T16:55:34.524Z,66.80
2019-06-07T17:00:40.408Z,66.60
2019-06-07T17:05:48.570Z,66.60
2019-06-07T17:10:50.961Z,66.50
2019-06-07T17:15:55.244Z,66.70
2019-06-07T17:20:59.558Z,66.90
2019-06-07T17:26:03.858Z,67.20
2019-06-07T17:31:08.232Z,67.40
2019-06-07T17:36:12.527Z,67.60
2019-06-07T17:41:16.843Z,67.50
2019-06-07T17:46:21.158Z,67.50
2019-06-07T17:51:25.458Z,67.50
2019-06-07T17:56:29.753Z,67.40
2019-06-07T18:01:41.579Z,67.30
2019-06-07T18:06:43.509Z,67.30
2019-06-07T18:11:47.965Z,67.30
2019-06-07T18:16:52.777Z,67.10
2019-06-07T18:21:58.993Z,67.00
2019-06-07T18:27:03.156Z,67.00
2019-06-07T18:32:07.464Z,66.30
2019-06-07T18:37:11.776Z,65.90
2019-06-07T18:42:16.088Z,66.10
2019-06-07T18:47:21.971Z,66.40
2019-06-07T18:52:27.921Z,66.60
2019-06-07T18:57:32.250Z,66.50
2019-06-07T19:02:36.545Z,66.60
2019-06-07T19:07:41.029Z,66.40
2019-06-07T19:12:45.344Z,66.00
2019-06-07T19:17:49.805Z,65.60
2019-06-07T19:22:54.499Z,65.80
2019-06-07T19:27:59.185Z,65.80
2019-06-07T19:33:03.688Z,65.80
2019-06-07T19:38:07.996Z,65.90
2019-06-07T19:43:12.303Z,65.90
2019-06-07T19:48:16.614Z,66.00
2019-06-07T19:53:20.924Z,66.10
2019-06-07T19:58:25.233Z,66.10
2019-06-07T20:03:29.537Z,66.20
2019-06-07T20:08:33.843Z,66.20
2019-06-07T20:13:38.235Z,67.00
2019-06-07T20:18:42.546Z,66.20
2019-06-07T20:23:46.854Z,66.20
2019-06-07T20:28:51.160Z,66.20
2019-06-07T20:33:56.328Z,66.20
2019-06-07T20:39:02.043Z,66.10
2019-06-07T20:44:08.047Z,66.20
2019-06-07T20:49:12.506Z,66.30
2019-06-07T20:54:16.807Z,66.50
2019-06-07T20:59:21.104Z,66.60
2019-06-07T21:04:25.438Z,65.00
2019-06-07T21:09:29.734Z,64.80
2019-06-07T21:14:34.041Z,65.40
2019-06-07T21:19:38.352Z,65.60
2019-06-07T21:24:42.655Z,66.10
2019-06-07T21:29:46.958Z,66.20
2019-06-07T21:34:51.263Z,66.30
2019-06-07T21:39:55.581Z,66.20
2019-06-07T21:44:59.871Z,66.30
2019-06-07T21:50:06.636Z,66.30
2019-06-07T21:55:11.769Z,66.30
2019-06-07T22:00:27.336Z,66.30
2019-06-07T22:05:31.649Z,66.20
2019-06-07T22:10:35.962Z,65.90
2019-06-07T22:15:40.251Z,65.80
2019-06-07T22:20:44.563Z,65.70
2019-06-07T22:25:48.866Z,65.80
2019-06-07T22:30:53.182Z,65.80
2019-06-07T22:35:57.476Z,65.70
2019-06-07T22:41:01.780Z,65.60
2019-06-07T22:46:06.741Z,65.50
2019-06-07T22:51:12.715Z,65.60
2019-06-07T22:56:18.998Z,65.20
2019-06-07T23:01:23.472Z,65.20
2019-06-07T23:06:27.775Z,65.40
2019-06-07T23:11:32.082Z,65.30
2019-06-07T23:16:51.605Z,65.10
2019-06-07T23:21:42.428Z,65.10
2019-06-07T23:26:46.727Z,65.00
2019-06-07T23:31:51.135Z,65.00
2019-06-07T23:36:55.502Z,64.90
2019-06-07T23:41:59.810Z,64.60
2019-06-07T23:47:11.551Z,64.50
2019-06-07T23:52:11.488Z,64.30
2019-06-07T23:57:16.211Z,64.20
